createdAt,value
2023-05-05T00:00:40.121Z,101168.25
2023-05-05T00:03:06.553Z,101166.63
2023-05-05T00:05:32.940Z,101165.06
2023-05-05T00:07:59.317Z,101174.59
2023-05-05T00:10:25.639Z,101170.25
2023-05-05T00:15:36.134Z,101173.41
2023-05-05T00:18:02.488Z,101176.97
2023-05-05T00:20:28.852Z,101167.06
2023-05-05T00:22:55.185Z,101170.63
2023-05-05T00:25:21.541Z,101167.44
2023-05-05T00:30:31.801Z,101166.63
2023-05-05T00:32:58.308Z,101163.84
2023-05-05T00:35:24.722Z,101169.84
2023-05-05T00:37:51.069Z,101163.06
2023-05-05T00:40:17.406Z,101164.28
2023-05-05T00:45:27.474Z,101164.28
2023-05-05T00:47:53.834Z,101167.88
2023-05-05T00:50:20.208Z,101172.22
2023-05-05T00:52:46.721Z,101167.06
2023-05-05T00:55:13.108Z,101163.84
2023-05-05T01:00:23.351Z,101167.47
2023-05-05T01:02:49.778Z,101171.03
2023-05-05T01:05:16.168Z,101165.06
2023-05-05T01:07:42.488Z,101163.84
2023-05-05T01:10:19.615Z,101159.50
2023-05-05T01:15:30.948Z,101161.50
2023-05-05T01:17:57.293Z,101152.31
2023-05-05T01:20:23.695Z,101154.31
2023-05-05T01:22:50.049Z,101157.88
2023-05-05T01:25:16.377Z,101157.09
2023-05-05T01:30:26.690Z,101151.53
2023-05-05T01:32:53.087Z,101150.38
2023-05-05T01:35:20.534Z,101155.09
2023-05-05T01:37:46.870Z,101159.50
2023-05-05T01:40:14.088Z,101147.97
2023-05-05T01:42:40.436Z,101148.75
2023-05-05T01:45:06.870Z,101150.75
2023-05-05T01:47:33.259Z,101141.59
2023-05-05T01:49:59.612Z,101139.63
2023-05-05T01:52:25.945Z,101138.78
2023-05-05T01:54:52.284Z,101130.44
2023-05-05T01:57:18.637Z,101142.78
2023-05-05T01:59:45.004Z,101143.59
2023-05-05T02:02:12.281Z,101143.97
2023-05-05T02:04:38.635Z,101143.19
2023-05-05T02:07:05.001Z,101141.97
2023-05-05T02:09:31.442Z,101141.59
2023-05-05T02:11:57.817Z,101135.59
2023-05-05T02:14:24.179Z,101136.00
2023-05-05T02:16:51.377Z,101138.78
2023-05-05T02:19:18.579Z,101130.81
2023-05-05T02:21:44.925Z,101133.22
2023-05-05T02:24:11.275Z,101126.84
2023-05-05T02:26:37.633Z,101122.47
2023-05-05T02:29:03.996Z,101127.66
2023-05-05T02:31:30.337Z,101124.06
2023-05-05T02:33:56.734Z,101122.88
2023-05-05T02:36:23.260Z,101121.69
2023-05-05T02:38:49.588Z,101114.94
2023-05-05T02:41:15.949Z,101120.09
2023-05-05T02:43:42.299Z,101116.13
2023-05-05T02:48:52.440Z,101120.50
2023-05-05T02:51:18.802Z,101118.09
2023-05-05T02:53:45.105Z,101108.56
2023-05-05T02:56:12.319Z,101115.31
2023-05-05T02:58:38.639Z,101112.53
2023-05-05T03:03:48.882Z,101114.94
2023-05-05T03:06:15.345Z,101110.56
2023-05-05T03:08:41.700Z,101109.75
2023-05-05T03:11:08.026Z,101110.56
2023-05-05T03:13:34.360Z,101098.25
2023-05-05T03:18:44.340Z,101105.00
2023-05-05T03:21:10.660Z,101104.59
2023-05-05T03:23:36.996Z,101099.81
2023-05-05T03:26:03.376Z,101102.22
2023-05-05T03:28:29.767Z,101106.19
2023-05-05T03:33:40.039Z,101105.38
2023-05-05T03:36:06.366Z,101111.41
2023-05-05T03:38:32.751Z,101114.19
2023-05-05T03:40:59.109Z,101108.66
2023-05-05T03:43:25.440Z,101114.22
2023-05-05T03:48:45.753Z,101115.81
2023-05-05T03:51:12.152Z,101105.91
2023-05-05T03:53:38.541Z,101104.69
2023-05-05T03:56:07.640Z,101112.25
2023-05-05T03:58:33.993Z,101117.44
2023-05-05T04:03:44.519Z,101129.41
2023-05-05T04:06:10.932Z,101134.25
2023-05-05T04:08:37.275Z,101144.19
2023-05-05T04:11:03.610Z,101148.53
2023-05-05T04:13:29.956Z,101139.00
2023-05-05T04:18:40.274Z,101154.16
2023-05-05T04:21:06.691Z,101150.94
2023-05-05T04:23:33.114Z,101152.94
2023-05-05T04:26:01.387Z,101161.28
2023-05-05T04:28:27.860Z,101169.25
2023-05-05T04:33:40.378Z,101167.63
2023-05-05T04:36:06.817Z,101183.56
2023-05-05T04:38:33.279Z,101180.00
2023-05-05T04:41:00.530Z,101185.94
2023-05-05T04:43:29.728Z,101193.06
2023-05-05T04:45:56.211Z,101185.09
2023-05-05T04:48:22.747Z,101192.66
2023-05-05T04:50:49.198Z,101193.44
2023-05-05T04:53:16.591Z,101194.25
2023-05-05T04:55:43.068Z,101192.66
2023-05-05T04:58:11.574Z,101192.66
2023-05-05T05:00:38.946Z,101196.22
2023-05-05T05:03:05.590Z,101195.84
2023-05-05T05:05:32.446Z,101203.41
2023-05-05T05:07:58.890Z,101205.03
2023-05-05T05:10:25.591Z,101208.19
2023-05-05T05:12:53.911Z,101202.22
2023-05-05T05:15:20.606Z,101200.63
2023-05-05T05:17:47.373Z,101201.44
2023-05-05T05:20:15.056Z,101211.00
2023-05-05T05:22:42.735Z,101199.09
2023-05-05T05:25:09.188Z,101200.69
2023-05-05T05:27:35.620Z,101203.91
2023-05-05T05:30:02.884Z,101200.31
2023-05-05T05:32:30.169Z,101207.47
2023-05-05T05:34:56.595Z,101203.50
2023-05-05T05:37:23.031Z,101201.53
2023-05-05T05:39:50.257Z,101196.31
2023-05-05T05:42:19.426Z,101202.69
2023-05-05T05:44:45.893Z,101208.63
2023-05-05T05:47:12.364Z,101203.44
2023-05-05T05:49:38.846Z,101202.25
2023-05-05T05:52:05.361Z,101203.00
2023-05-05T05:54:31.912Z,101210.63
2023-05-05T05:56:58.401Z,101209.41
2023-05-05T05:59:24.854Z,101203.81
2023-05-05T06:01:52.215Z,101203.00
2023-05-05T06:07:03.573Z,101201.78
2023-05-05T06:09:30.012Z,101199.44
2023-05-05T06:11:57.274Z,101205.00
2023-05-05T06:14:23.767Z,101208.19
2023-05-05T06:16:50.190Z,101219.34
2023-05-05T06:22:00.932Z,101215.31
2023-05-05T06:24:27.352Z,101215.31
2023-05-05T06:26:55.656Z,101220.53
2023-05-05T06:29:22.895Z,101214.19
2023-05-05T06:31:49.442Z,101214.59
2023-05-05T06:36:59.613Z,101214.56
2023-05-05T06:39:25.984Z,101211.41
2023-05-05T06:41:52.316Z,101218.59
2023-05-05T06:44:18.686Z,101225.72
2023-05-05T06:46:45.018Z,101223.72
2023-05-05T06:51:56.281Z,101221.78
2023-05-05T06:54:22.685Z,101233.34
2023-05-05T06:56:49.028Z,101227.81
2023-05-05T06:59:15.404Z,101223.47
2023-05-05T07:01:41.782Z,101224.25
2023-05-05T07:06:51.850Z,101221.91
2023-05-05T07:09:18.211Z,101231.47
2023-05-05T07:11:44.580Z,101230.59
2023-05-05T07:14:10.964Z,101235.03
2023-05-05T07:16:37.419Z,101235.44
2023-05-05T07:21:47.848Z,101241.03
2023-05-05T07:24:14.207Z,101241.06
2023-05-05T07:26:40.670Z,101238.69
2023-05-05T07:29:07.147Z,101238.69
2023-05-05T07:31:34.458Z,101240.28
2023-05-05T07:36:47.709Z,101241.09
2023-05-05T07:39:14.194Z,101237.50
2023-05-05T07:41:40.662Z,101242.28
2023-05-05T07:44:07.122Z,101247.47
2023-05-05T07:46:34.459Z,101243.06
2023-05-05T07:51:44.805Z,101240.69
2023-05-05T07:54:11.251Z,101247.47
2023-05-05T07:56:37.677Z,101243.84
2023-05-05T07:59:04.147Z,101242.25
2023-05-05T08:01:30.549Z,101240.22
2023-05-05T08:03:57.114Z,101243.34
2023-05-05T08:06:24.478Z,101243.34
2023-05-05T08:08:53.622Z,101245.75
2023-05-05T08:11:19.992Z,101246.50
2023-05-05T08:13:46.393Z,101245.75
2023-05-05T08:16:13.663Z,101246.94
2023-05-05T08:18:40.909Z,101252.09
2023-05-05T08:21:07.310Z,101246.53
2023-05-05T08:23:33.671Z,101252.50
2023-05-05T08:25:59.996Z,101244.97
2023-05-05T08:28:26.364Z,101252.09
2023-05-05T08:30:53.790Z,101259.84
2023-05-05T08:33:20.308Z,101259.81
2023-05-05T08:35:47.592Z,101253.81
2023-05-05T08:38:14.102Z,101254.16
2023-05-05T08:40:40.559Z,101256.03
2023-05-05T08:43:07.003Z,101254.22
2023-05-05T08:45:33.396Z,101247.56
2023-05-05T08:47:59.783Z,101250.72
2023-05-05T08:50:26.156Z,101245.63
2023-05-05T08:52:52.560Z,101250.47
2023-05-05T08:55:19.027Z,101241.72
2023-05-05T08:57:45.381Z,101248.91
2023-05-05T09:00:11.737Z,101246.50
2023-05-05T09:02:38.123Z,101248.50
2023-05-05T09:05:04.589Z,101240.97
2023-05-05T09:10:24.735Z,101257.22
2023-05-05T09:12:51.442Z,101251.69
2023-05-05T09:15:18.031Z,101252.81
2023-05-05T09:17:44.472Z,101249.13
2023-05-05T09:20:10.910Z,101245.19
2023-05-05T09:25:21.372Z,101254.09
2023-05-05T09:27:47.707Z,101248.06
2023-05-05T09:30:14.070Z,101246.09
2023-05-05T09:32:40.408Z,101246.88
2023-05-05T09:35:06.955Z,101252.88
2023-05-05T09:40:18.043Z,101247.66
2023-05-05T09:42:44.409Z,101248.50
2023-05-05T09:45:10.826Z,101252.06
2023-05-05T09:47:37.121Z,101252.50
2023-05-05T09:50:03.518Z,101250.50
2023-05-05T09:55:14.034Z,101256.84
2023-05-05T09:57:40.384Z,101253.22
2023-05-05T10:00:07.006Z,101263.22
2023-05-05T10:02:33.667Z,101256.88
2023-05-05T10:05:02.530Z,101258.44
2023-05-05T10:10:13.823Z,101263.13
2023-05-05T10:12:40.256Z,101267.84
2023-05-05T10:15:07.576Z,101272.63
2023-05-05T10:17:33.976Z,101274.59
2023-05-05T10:20:00.633Z,101263.69
2023-05-05T10:25:10.898Z,101264.56
2023-05-05T10:27:37.266Z,101259.72
2023-05-05T10:30:03.647Z,101260.91
2023-05-05T10:34:59.228Z,101259.28
2023-05-05T10:40:09.545Z,101247.84
2023-05-05T10:42:36.127Z,101250.31
2023-05-05T10:45:02.556Z,101251.56
2023-05-05T10:47:28.953Z,101257.56
2023-05-05T10:49:55.357Z,101257.09
2023-05-05T10:55:05.507Z,101263.47
2023-05-05T10:57:31.858Z,101257.03
2023-05-05T10:59:58.198Z,101266.63
2023-05-05T11:02:24.667Z,101251.53
2023-05-05T11:04:51.101Z,101259.50
2023-05-05T11:10:01.695Z,101258.28
2023-05-05T11:12:28.227Z,101254.75
2023-05-05T11:14:54.564Z,101251.50
2023-05-05T11:17:23.695Z,101254.69
2023-05-05T11:19:50.079Z,101250.75
2023-05-05T11:22:16.427Z,101251.88
2023-05-05T11:24:42.761Z,101239.97
2023-05-05T11:27:09.184Z,101247.97
2023-05-05T11:29:35.643Z,101253.91
2023-05-05T11:32:03.953Z,101258.66
2023-05-05T11:34:31.167Z,101256.34
2023-05-05T11:36:57.508Z,101243.63
2023-05-05T11:39:23.878Z,101249.63
2023-05-05T11:41:50.252Z,101258.38
2023-05-05T11:44:16.713Z,101246.47
2023-05-05T11:46:43.176Z,101250.75
2023-05-05T11:49:09.736Z,101248.72
2023-05-05T11:51:36.091Z,101245.59
2023-05-05T11:54:02.401Z,101253.19
2023-05-05T11:56:29.657Z,101254.44
2023-05-05T11:58:56.106Z,101251.25
2023-05-05T12:01:22.590Z,101244.09
2023-05-05T12:03:49.234Z,101242.41
2023-05-05T12:06:15.836Z,101247.63
2023-05-05T12:08:42.324Z,101239.69
2023-05-05T12:11:10.648Z,101242.84
2023-05-05T12:13:37.951Z,101244.09
2023-05-05T12:16:05.368Z,101244.09
2023-05-05T12:18:32.648Z,101240.50
2023-05-05T12:20:59.889Z,101242.44
2023-05-05T12:23:26.403Z,101242.91
2023-05-05T12:28:38.900Z,101239.22
2023-05-05T12:31:05.399Z,101245.16
2023-05-05T12:33:31.846Z,101244.00
2023-05-05T12:35:59.082Z,101249.88
2023-05-05T12:38:25.449Z,101248.94
2023-05-05T12:43:35.642Z,101258.03
2023-05-05T12:46:02.137Z,101254.09
2023-05-05T12:48:28.572Z,101252.84
2023-05-05T12:50:54.936Z,101252.06
2023-05-05T12:53:21.305Z,101256.09
2023-05-05T12:58:32.419Z,101258.13
2023-05-05T13:00:58.862Z,101252.50
2023-05-05T13:03:25.418Z,101244.19
2023-05-05T13:05:51.843Z,101250.56
2023-05-05T13:08:18.190Z,101261.69
2023-05-05T13:13:38.784Z,101255.22
2023-05-05T13:16:06.078Z,101258.41
2023-05-05T13:18:32.529Z,101258.81
2023-05-05T13:20:58.899Z,101258.38
2023-05-05T13:23:25.907Z,101261.13
2023-05-05T13:28:36.087Z,101258.72
2023-05-05T13:31:02.494Z,101247.16
2023-05-05T13:33:28.888Z,101250.72
2023-05-05T13:35:55.297Z,101245.16
2023-05-05T13:38:21.692Z,101243.63
2023-05-05T13:43:41.748Z,101243.66
2023-05-05T13:46:19.181Z,101247.25
2023-05-05T13:48:46.650Z,101246.00
2023-05-05T13:51:13.094Z,101250.00
2023-05-05T13:53:39.476Z,101250.38
2023-05-05T13:58:49.964Z,101237.66
2023-05-05T14:01:16.325Z,101239.66
2023-05-05T14:03:43.670Z,101241.69
2023-05-05T14:06:12.020Z,101234.88
2023-05-05T14:08:38.577Z,101239.94
2023-05-05T14:13:59.184Z,101245.56
2023-05-05T14:16:26.505Z,101243.13
2023-05-05T14:18:54.854Z,101240.34
2023-05-05T14:21:22.102Z,101240.81
2023-05-05T14:23:48.501Z,101244.72
2023-05-05T14:28:58.615Z,101240.25
2023-05-05T14:31:25.059Z,101240.63
2023-05-05T14:33:51.394Z,101233.91
2023-05-05T14:36:17.805Z,101235.03
2023-05-05T14:38:44.193Z,101236.25
2023-05-05T14:43:54.520Z,101237.38
2023-05-05T14:46:21.809Z,101241.72
2023-05-05T14:48:48.168Z,101242.53
2023-05-05T14:51:14.556Z,101247.19
2023-05-05T14:53:40.883Z,101242.06
2023-05-05T14:56:07.285Z,101245.28
2023-05-05T14:58:33.638Z,101244.81
2023-05-05T15:00:59.966Z,101243.59
2023-05-05T15:03:26.459Z,101251.16
2023-05-05T15:05:52.945Z,101255.91
2023-05-05T15:08:19.339Z,101245.97
2023-05-05T15:10:45.698Z,101243.56
2023-05-05T15:13:12.136Z,101245.63
2023-05-05T15:15:38.534Z,101244.72
2023-05-05T15:18:05.021Z,101246.72
2023-05-05T15:20:31.401Z,101245.56
2023-05-05T15:22:57.724Z,101258.59
2023-05-05T15:25:24.138Z,101251.09
2023-05-05T15:27:50.484Z,101256.19
2023-05-05T15:30:16.847Z,101257.34
2023-05-05T15:32:43.232Z,101252.09
2023-05-05T15:35:10.473Z,101253.31
2023-05-05T15:37:37.079Z,101260.03
2023-05-05T15:40:03.494Z,101254.09
2023-05-05T15:42:29.878Z,101256.00
2023-05-05T15:44:56.234Z,101268.03
2023-05-05T15:47:22.744Z,101258.75
2023-05-05T15:49:49.102Z,101259.53
2023-05-05T15:52:15.459Z,101254.75
2023-05-05T15:54:41.810Z,101264.69
2023-05-05T15:57:08.189Z,101255.47
2023-05-05T16:02:18.421Z,101258.66
2023-05-05T16:04:44.861Z,101254.19
2023-05-05T16:07:11.231Z,101254.69
2023-05-05T16:09:37.623Z,101256.66
2023-05-05T16:12:04.016Z,101244.84
2023-05-05T16:17:14.290Z,101256.47
2023-05-05T16:19:40.662Z,101249.28
2023-05-05T16:22:07.032Z,101248.38
2023-05-05T16:24:33.474Z,101245.59
2023-05-05T16:26:59.945Z,101252.41
2023-05-05T16:32:11.370Z,101246.78
2023-05-05T16:34:37.741Z,101255.53
2023-05-05T16:37:04.111Z,101245.53
2023-05-05T16:39:31.367Z,101249.94
2023-05-05T16:41:57.815Z,101243.94
2023-05-05T16:47:10.687Z,101241.44
2023-05-05T16:49:39.869Z,101240.28
2023-05-05T16:52:06.384Z,101239.59
2023-05-05T16:54:32.788Z,101242.38
2023-05-05T16:56:59.188Z,101243.13
2023-05-05T17:02:10.435Z,101243.34
2023-05-05T17:04:36.859Z,101248.16
2023-05-05T17:07:04.157Z,101245.69
2023-05-05T17:09:31.450Z,101244.53
2023-05-05T17:11:57.865Z,101254.00
2023-05-05T17:17:09.008Z,101259.50
2023-05-05T17:19:38.259Z,101249.56
2023-05-05T17:22:04.867Z,101248.81
2023-05-05T17:24:32.231Z,101259.88
2023-05-05T17:27:00.577Z,101255.94
2023-05-05T17:32:13.554Z,101260.53
2023-05-05T17:34:42.690Z,101271.59
2023-05-05T17:37:09.940Z,101260.06
2023-05-05T17:39:36.346Z,101264.50
2023-05-05T17:42:02.719Z,101271.16
2023-05-05T17:47:13.158Z,101275.59
2023-05-05T17:49:39.534Z,101274.09
2023-05-05T17:52:05.927Z,101271.31
2023-05-05T17:54:32.336Z,101280.44
2023-05-05T17:56:58.679Z,101277.69
2023-05-05T18:02:09.994Z,101277.34
2023-05-05T18:04:36.380Z,101276.06
2023-05-05T18:07:02.779Z,101280.09
2023-05-05T18:09:29.465Z,101277.34
2023-05-05T18:11:55.819Z,101284.00
2023-05-05T18:14:22.193Z,101287.53
2023-05-05T18:16:48.615Z,101291.56
2023-05-05T18:19:15.016Z,101280.84
2023-05-05T18:21:41.370Z,101281.34
2023-05-05T18:24:19.190Z,101288.97
2023-05-05T18:26:46.911Z,101292.13
2023-05-05T18:29:13.263Z,101299.22
2023-05-05T18:31:39.664Z,101306.31
2023-05-05T18:34:06.076Z,101306.38
2023-05-05T18:36:32.613Z,101309.09
2023-05-05T18:38:59.907Z,101310.28
2023-05-05T18:41:26.315Z,101311.00
2023-05-05T18:43:52.683Z,101308.34
2023-05-05T18:46:19.122Z,101312.75
2023-05-05T18:48:45.700Z,101310.72
2023-05-05T18:51:13.118Z,101311.13
2023-05-05T18:53:42.327Z,101308.72
2023-05-05T18:56:11.530Z,101299.94
2023-05-05T18:58:37.928Z,101301.88
2023-05-05T19:01:04.359Z,101317.00
2023-05-05T19:03:30.755Z,101321.66
2023-05-05T19:05:57.137Z,101321.59
2023-05-05T19:08:23.502Z,101319.63
2023-05-05T19:10:49.856Z,101320.41
2023-05-05T19:13:17.275Z,101323.56
2023-05-05T19:15:43.887Z,101318.81
2023-05-05T19:18:11.379Z,101321.19
2023-05-05T19:20:38.795Z,101320.47
2023-05-05T19:23:05.366Z,101329.13
2023-05-05T19:25:32.667Z,101321.53
2023-05-05T19:27:59.227Z,101321.97
2023-05-05T19:30:25.733Z,101318.38
2023-05-05T19:35:36.797Z,101319.25
2023-05-05T19:38:05.911Z,101316.03
2023-05-05T19:40:34.245Z,101319.63
2023-05-05T19:43:02.544Z,101320.75
2023-05-05T19:45:29.020Z,101315.56
2023-05-05T19:50:39.292Z,101322.31
2023-05-05T19:53:05.686Z,101321.09
2023-05-05T19:55:32.152Z,101315.97
2023-05-05T19:57:58.588Z,101313.53
2023-05-05T20:00:25.999Z,101314.28
2023-05-05T20:05:36.376Z,101313.53
2023-05-05T20:08:02.805Z,101313.53
2023-05-05T20:10:31.999Z,101313.88
2023-05-05T20:12:58.465Z,101312.63
2023-05-05T20:15:25.769Z,101303.97
2023-05-05T20:20:35.895Z,101295.59
2023-05-05T20:23:02.331Z,101311.47
2023-05-05T20:25:28.766Z,101314.25
2023-05-05T20:27:57.083Z,101311.84
2023-05-05T20:30:23.668Z,101313.88
2023-05-05T20:35:34.528Z,101313.06
2023-05-05T20:38:01.941Z,101310.31
2023-05-05T20:40:28.568Z,101312.63
2023-05-05T20:42:55.069Z,101310.69
2023-05-05T20:45:24.250Z,101311.53
2023-05-05T20:50:38.075Z,101311.47
2023-05-05T20:53:04.493Z,101317.41
2023-05-05T20:55:33.771Z,101313.31
2023-05-05T20:58:00.466Z,101308.56
2023-05-05T21:00:26.904Z,101305.53
2023-05-05T21:05:37.317Z,101314.81
2023-05-05T21:08:03.747Z,101307.69
2023-05-05T21:10:30.134Z,101310.44
2023-05-05T21:12:56.558Z,101303.66
2023-05-05T21:15:22.963Z,101306.44
2023-05-05T21:20:34.036Z,101303.69
2023-05-05T21:23:00.491Z,101305.28
2023-05-05T21:25:26.853Z,101310.09
2023-05-05T21:27:53.229Z,101316.03
2023-05-05T21:30:19.601Z,101315.59
2023-05-05T21:32:46.107Z,101310.03
2023-05-05T21:35:12.568Z,101310.91
2023-05-05T21:37:40.063Z,101311.72
2023-05-05T21:40:06.647Z,101318.50
2023-05-05T21:42:33.004Z,101314.94
2023-05-05T21:44:59.430Z,101316.50
2023-05-05T21:47:25.845Z,101319.72
2023-05-05T21:49:52.341Z,101314.97
2023-05-05T21:52:18.801Z,101319.72
2023-05-05T21:54:46.257Z,101318.59
2023-05-05T21:57:12.736Z,101321.00
2023-05-05T21:59:39.203Z,101306.69
2023-05-05T22:02:06.624Z,101311.03
2023-05-05T22:04:34.019Z,101311.41
2023-05-05T22:07:00.483Z,101310.25
2023-05-05T22:09:26.932Z,101307.06
2023-05-05T22:11:53.456Z,101303.06
2023-05-05T22:14:22.694Z,101307.06
2023-05-05T22:16:49.219Z,101304.28
2023-05-05T22:19:16.945Z,101301.09
2023-05-05T22:21:43.394Z,101302.69
2023-05-05T22:24:10.677Z,101306.28
2023-05-05T22:26:39.786Z,101314.66
2023-05-05T22:29:06.185Z,101312.63
2023-05-05T22:31:32.664Z,101306.28
2023-05-05T22:33:59.052Z,101306.69
2023-05-05T22:39:09.484Z,101299.16
2023-05-05T22:41:35.842Z,101299.53
2023-05-05T22:44:02.192Z,101295.56
2023-05-05T22:46:28.564Z,101298.34
2023-05-05T22:48:54.964Z,101295.94
2023-05-05T22:54:05.190Z,101297.13
2023-05-05T22:56:31.769Z,101292.78
2023-05-05T22:58:58.131Z,101286.41
2023-05-05T23:01:24.746Z,101298.72
2023-05-05T23:03:51.187Z,101293.56
2023-05-05T23:09:01.360Z,101297.91
2023-05-05T23:11:27.699Z,101295.16
2023-05-05T23:13:54.049Z,101284.03
2023-05-05T23:16:20.426Z,101289.59
2023-05-05T23:18:46.935Z,101294.34
2023-05-05T23:24:07.103Z,101292.75
2023-05-05T23:26:33.449Z,101293.56
2023-05-05T23:28:59.842Z,101289.97
2023-05-05T23:31:26.297Z,101293.56
2023-05-05T23:33:52.649Z,101284.41
2023-05-05T23:39:02.950Z,101287.56
2023-05-05T23:41:29.279Z,101285.59
2023-05-05T23:43:55.666Z,101287.94
2023-05-05T23:46:22.092Z,101281.63
2023-05-05T23:48:48.505Z,101286.34
2023-05-05T23:53:58.783Z,101281.59
2023-05-05T23:56:25.137Z,101284.75
2023-05-05T23:58:51.494Z,101281.97
